sensor_id;sensor_type;location;lat;lon;timestamp;P1;durP1;ratioP1;P2;durP2;ratioP2
24173;SDS011;12324;48.146;11.502;2023-11-19T00:01:57;8.57;;;3.70;;
24173;SDS011;12324;48.146;11.502;2023-11-19T00:04:24;8.45;;;4.13;;
24173;SDS011;12324;48.146;11.502;2023-11-19T00:06:51;8.23;;;4.10;;
24173;SDS011;12324;48.146;11.502;2023-11-19T00:09:18;7.30;;;3.70;;
24173;SDS011;12324;48.146;11.502;2023-11-19T00:11:45;6.38;;;3.33;;
24173;SDS011;12324;48.146;11.502;2023-11-19T00:14:20;9.63;;;3.97;;
24173;SDS011;12324;48.146;11.502;2023-11-19T00:16:46;10.02;;;4.45;;
24173;SDS011;12324;48.146;11.502;2023-11-19T00:19:13;9.35;;;3.95;;
24173;SDS011;12324;48.146;11.502;2023-11-19T00:21:40;8.93;;;4.10;;
24173;SDS011;12324;48.146;11.502;2023-11-19T00:24:07;7.60;;;3.88;;
24173;SDS011;12324;48.146;11.502;2023-11-19T00:26:34;7.13;;;3.50;;
24173;SDS011;12324;48.146;11.502;2023-11-19T00:29:01;7.40;;;3.70;;
24173;SDS011;12324;48.146;11.502;2023-11-19T00:31:28;9.02;;;3.42;;
24173;SDS011;12324;48.146;11.502;2023-11-19T00:33:55;8.40;;;3.92;;
24173;SDS011;12324;48.146;11.502;2023-11-19T00:36:22;8.75;;;3.60;;
24173;SDS011;12324;48.146;11.502;2023-11-19T00:38:50;7.93;;;3.65;;
24173;SDS011;12324;48.146;11.502;2023-11-19T00:41:18;6.43;;;3.20;;
24173;SDS011;12324;48.146;11.502;2023-11-19T00:43:45;7.68;;;3.50;;
24173;SDS011;12324;48.146;11.502;2023-11-19T00:46:12;5.30;;;3.17;;
24173;SDS011;12324;48.146;11.502;2023-11-19T00:48:40;7.35;;;3.50;;
24173;SDS011;12324;48.146;11.502;2023-11-19T00:51:06;8.32;;;3.17;;
24173;SDS011;12324;48.146;11.502;2023-11-19T00:53:34;6.32;;;3.42;;
24173;SDS011;12324;48.146;11.502;2023-11-19T00:56:00;7.45;;;3.03;;
24173;SDS011;12324;48.146;11.502;2023-11-19T00:58:27;8.38;;;3.67;;
24173;SDS011;12324;48.146;11.502;2023-11-19T01:00:54;4.75;;;2.78;;
24173;SDS011;12324;48.146;11.502;2023-11-19T01:03:22;5.32;;;2.70;;
24173;SDS011;12324;48.146;11.502;2023-11-19T01:05:48;5.40;;;3.10;;
24173;SDS011;12324;48.146;11.502;2023-11-19T01:08:15;4.47;;;2.92;;
24173;SDS011;12324;48.146;11.502;2023-11-19T01:10:42;6.00;;;2.67;;
24173;SDS011;12324;48.146;11.502;2023-11-19T01:13:09;4.20;;;2.65;;
24173;SDS011;12324;48.146;11.502;2023-11-19T01:15:36;7.35;;;3.15;;
24173;SDS011;12324;48.146;11.502;2023-11-19T01:18:03;6.38;;;2.75;;
24173;SDS011;12324;48.146;11.502;2023-11-19T01:20:31;6.40;;;3.13;;
24173;SDS011;12324;48.146;11.502;2023-11-19T01:23:00;5.40;;;2.80;;
24173;SDS011;12324;48.146;11.502;2023-11-19T01:25:27;5.97;;;2.88;;
24173;SDS011;12324;48.146;11.502;2023-11-19T01:27:54;6.70;;;3.25;;
24173;SDS011;12324;48.146;11.502;2023-11-19T01:30:24;5.70;;;3.17;;
24173;SDS011;12324;48.146;11.502;2023-11-19T01:32:51;11.82;;;3.70;;
24173;SDS011;12324;48.146;11.502;2023-11-19T01:35:19;12.68;;;3.83;;
24173;SDS011;12324;48.146;11.502;2023-11-19T01:37:45;6.38;;;3.03;;
24173;SDS011;12324;48.146;11.502;2023-11-19T01:40:12;6.18;;;2.92;;
24173;SDS011;12324;48.146;11.502;2023-11-19T01:42:40;8.15;;;2.63;;
24173;SDS011;12324;48.146;11.502;2023-11-19T01:45:07;5.35;;;2.70;;
24173;SDS011;12324;48.146;11.502;2023-11-19T01:47:35;5.35;;;2.50;;
24173;SDS011;12324;48.146;11.502;2023-11-19T01:50:03;6.10;;;3.17;;
24173;SDS011;12324;48.146;11.502;2023-11-19T01:52:34;6.60;;;2.88;;
24173;SDS011;12324;48.146;11.502;2023-11-19T01:55:03;7.00;;;3.10;;
24173;SDS011;12324;48.146;11.502;2023-11-19T01:57:31;7.53;;;2.83;;
24173;SDS011;12324;48.146;11.502;2023-11-19T01:59:58;5.07;;;2.72;;
24173;SDS011;12324;48.146;11.502;2023-11-19T02:02:25;5.45;;;2.75;;
24173;SDS011;12324;48.146;11.502;2023-11-19T02:04:53;4.72;;;2.65;;
24173;SDS011;12324;48.146;11.502;2023-11-19T02:07:20;4.97;;;2.55;;
24173;SDS011;12324;48.146;11.502;2023-11-19T02:09:47;6.57;;;2.63;;
24173;SDS011;12324;48.146;11.502;2023-11-19T02:12:14;7.10;;;2.80;;
24173;SDS011;12324;48.146;11.502;2023-11-19T02:14:41;7.32;;;2.63;;
24173;SDS011;12324;48.146;11.502;2023-11-19T02:17:24;5.45;;;2.55;;
24173;SDS011;12324;48.146;11.502;2023-11-19T02:19:51;5.40;;;2.72;;
24173;SDS011;12324;48.146;11.502;2023-11-19T02:22:19;4.38;;;2.60;;
24173;SDS011;12324;48.146;11.502;2023-11-19T02:24:46;4.47;;;2.42;;
24173;SDS011;12324;48.146;11.502;2023-11-19T02:27:16;4.72;;;1.85;;
24173;SDS011;12324;48.146;11.502;2023-11-19T02:29:48;2.83;;;1.90;;
24173;SDS011;12324;48.146;11.502;2023-11-19T02:32:15;4.82;;;2.10;;
24173;SDS011;12324;48.146;11.502;2023-11-19T02:34:42;3.65;;;1.98;;
24173;SDS011;12324;48.146;11.502;2023-11-19T02:37:09;3.30;;;2.05;;
24173;SDS011;12324;48.146;11.502;2023-11-19T02:39:37;4.55;;;2.10;;
24173;SDS011;12324;48.146;11.502;2023-11-19T02:42:04;3.17;;;1.67;;
24173;SDS011;12324;48.146;11.502;2023-11-19T02:44:32;4.43;;;1.70;;
24173;SDS011;12324;48.146;11.502;2023-11-19T02:47:00;2.58;;;1.73;;
24173;SDS011;12324;48.146;11.502;2023-11-19T02:49:29;3.58;;;2.00;;
24173;SDS011;12324;48.146;11.502;2023-11-19T02:51:56;3.58;;;1.80;;
24173;SDS011;12324;48.146;11.502;2023-11-19T02:54:25;3.72;;;1.75;;
24173;SDS011;12324;48.146;11.502;2023-11-19T02:56:53;2.78;;;1.58;;
24173;SDS011;12324;48.146;11.502;2023-11-19T02:59:25;4.43;;;2.00;;
24173;SDS011;12324;48.146;11.502;2023-11-19T03:02:05;3.88;;;1.73;;
24173;SDS011;12324;48.146;11.502;2023-11-19T03:04:33;4.25;;;1.73;;
24173;SDS011;12324;48.146;11.502;2023-11-19T03:07:00;4.05;;;1.83;;
24173;SDS011;12324;48.146;11.502;2023-11-19T03:09:28;3.88;;;1.63;;
24173;SDS011;12324;48.146;11.502;2023-11-19T03:11:55;2.22;;;1.58;;
24173;SDS011;12324;48.146;11.502;2023-11-19T03:14:22;2.08;;;1.50;;
24173;SDS011;12324;48.146;11.502;2023-11-19T03:16:49;3.33;;;1.60;;
24173;SDS011;12324;48.146;11.502;2023-11-19T03:19:17;2.20;;;1.50;;
24173;SDS011;12324;48.146;11.502;2023-11-19T03:21:47;2.13;;;1.40;;
24173;SDS011;12324;48.146;11.502;2023-11-19T03:24:14;1.83;;;1.33;;
24173;SDS011;12324;48.146;11.502;2023-11-19T03:26:41;2.55;;;1.27;;
24173;SDS011;12324;48.146;11.502;2023-11-19T03:29:08;0.85;;;0.85;;
24173;SDS011;12324;48.146;11.502;2023-11-19T03:31:35;4.00;;;1.20;;
24173;SDS011;12324;48.146;11.502;2023-11-19T03:34:02;1.55;;;1.20;;
24173;SDS011;12324;48.146;11.502;2023-11-19T03:36:32;0.90;;;0.90;;
24173;SDS011;12324;48.146;11.502;2023-11-19T03:38:59;1.42;;;1.13;;
24173;SDS011;12324;48.146;11.502;2023-11-19T03:41:27;3.05;;;1.50;;
24173;SDS011;12324;48.146;11.502;2023-11-19T03:43:54;0.90;;;0.90;;
24173;SDS011;12324;48.146;11.502;2023-11-19T03:46:21;1.77;;;1.13;;
24173;SDS011;12324;48.146;11.502;2023-11-19T03:48:49;1.73;;;1.05;;
24173;SDS011;12324;48.146;11.502;2023-11-19T03:51:16;3.72;;;1.35;;
24173;SDS011;12324;48.146;11.502;2023-11-19T03:53:44;1.70;;;1.10;;
24173;SDS011;12324;48.146;11.502;2023-11-19T03:56:11;1.10;;;1.00;;
24173;SDS011;12324;48.146;11.502;2023-11-19T03:58:39;1.70;;;1.23;;
24173;SDS011;12324;48.146;11.502;2023-11-19T04:01:06;6.07;;;1.30;;
24173;SDS011;12324;48.146;11.502;2023-11-19T04:03:38;1.02;;;0.82;;
24173;SDS011;12324;48.146;11.502;2023-11-19T04:06:16;2.08;;;0.93;;
24173;SDS011;12324;48.146;11.502;2023-11-19T04:08:43;1.00;;;0.93;;
24173;SDS011;12324;48.146;11.502;2023-11-19T04:11:10;1.40;;;0.90;;
24173;SDS011;12324;48.146;11.502;2023-11-19T04:13:38;1.48;;;1.27;;
24173;SDS011;12324;48.146;11.502;2023-11-19T04:16:05;2.20;;;1.10;;
24173;SDS011;12324;48.146;11.502;2023-11-19T04:18:32;1.20;;;0.90;;
24173;SDS011;12324;48.146;11.502;2023-11-19T04:20:59;1.42;;;1.15;;
24173;SDS011;12324;48.146;11.502;2023-11-19T04:23:26;1.05;;;0.90;;
24173;SDS011;12324;48.146;11.502;2023-11-19T04:25:53;3.17;;;1.50;;
24173;SDS011;12324;48.146;11.502;2023-11-19T04:28:35;2.17;;;1.35;;
24173;SDS011;12324;48.146;11.502;2023-11-19T04:31:02;1.88;;;1.30;;
24173;SDS011;12324;48.146;11.502;2023-11-19T04:33:29;1.95;;;1.15;;
24173;SDS011;12324;48.146;11.502;2023-11-19T04:35:57;3.72;;;1.27;;
24173;SDS011;12324;48.146;11.502;2023-11-19T04:38:24;1.70;;;1.20;;
24173;SDS011;12324;48.146;11.502;2023-11-19T04:40:52;2.17;;;1.25;;
24173;SDS011;12324;48.146;11.502;2023-11-19T04:43:20;4.35;;;1.30;;
24173;SDS011;12324;48.146;11.502;2023-11-19T04:45:47;2.08;;;1.20;;
24173;SDS011;12324;48.146;11.502;2023-11-19T04:48:14;1.25;;;1.00;;
24173;SDS011;12324;48.146;11.502;2023-11-19T04:50:41;1.55;;;1.20;;
24173;SDS011;12324;48.146;11.502;2023-11-19T04:53:08;1.70;;;1.15;;
24173;SDS011;12324;48.146;11.502;2023-11-19T04:55:36;1.13;;;1.02;;
24173;SDS011;12324;48.146;11.502;2023-11-19T04:58:03;3.58;;;1.30;;
24173;SDS011;12324;48.146;11.502;2023-11-19T05:00:30;2.05;;;1.20;;
24173;SDS011;12324;48.146;11.502;2023-11-19T05:02:57;1.48;;;1.10;;
24173;SDS011;12324;48.146;11.502;2023-11-19T05:05:24;1.23;;;1.13;;
24173;SDS011;12324;48.146;11.502;2023-11-19T05:07:52;2.30;;;1.60;;
24173;SDS011;12324;48.146;11.502;2023-11-19T05:10:19;1.33;;;1.10;;
24173;SDS011;12324;48.146;11.502;2023-11-19T05:12:46;1.08;;;1.05;;
24173;SDS011;12324;48.146;11.502;2023-11-19T05:15:13;2.50;;;1.08;;
24173;SDS011;12324;48.146;11.502;2023-11-19T05:17:40;1.38;;;1.20;;
24173;SDS011;12324;48.146;11.502;2023-11-19T05:20:07;1.20;;;1.10;;
24173;SDS011;12324;48.146;11.502;2023-11-19T05:22:40;1.15;;;1.05;;
24173;SDS011;12324;48.146;11.502;2023-11-19T05:25:08;4.72;;;1.30;;
24173;SDS011;12324;48.146;11.502;2023-11-19T05:27:37;3.10;;;1.20;;
24173;SDS011;12324;48.146;11.502;2023-11-19T05:30:04;1.50;;;1.25;;
24173;SDS011;12324;48.146;11.502;2023-11-19T05:32:36;1.30;;;1.20;;
24173;SDS011;12324;48.146;11.502;2023-11-19T05:35:03;2.10;;;1.20;;
24173;SDS011;12324;48.146;11.502;2023-11-19T05:37:31;2.80;;;1.40;;
24173;SDS011;12324;48.146;11.502;2023-11-19T05:39:58;1.23;;;1.10;;
24173;SDS011;12324;48.146;11.502;2023-11-19T05:42:26;2.05;;;1.33;;
24173;SDS011;12324;48.146;11.502;2023-11-19T05:44:53;1.83;;;1.20;;
24173;SDS011;12324;48.146;11.502;2023-11-19T05:47:20;1.65;;;1.27;;
24173;SDS011;12324;48.146;11.502;2023-11-19T05:49:48;1.15;;;0.98;;
24173;SDS011;12324;48.146;11.502;2023-11-19T05:52:15;3.22;;;1.20;;
24173;SDS011;12324;48.146;11.502;2023-11-19T05:54:42;1.20;;;1.10;;
24173;SDS011;12324;48.146;11.502;2023-11-19T05:57:09;4.13;;;1.40;;
24173;SDS011;12324;48.146;11.502;2023-11-19T05:59:36;2.45;;;1.17;;
24173;SDS011;12324;48.146;11.502;2023-11-19T06:02:04;3.25;;;1.40;;
24173;SDS011;12324;48.146;11.502;2023-11-19T06:04:31;1.88;;;1.50;;
24173;SDS011;12324;48.146;11.502;2023-11-19T06:06:58;3.00;;;1.38;;
24173;SDS011;12324;48.146;11.502;2023-11-19T06:09:25;2.15;;;1.33;;
24173;SDS011;12324;48.146;11.502;2023-11-19T06:11:52;1.15;;;1.05;;
24173;SDS011;12324;48.146;11.502;2023-11-19T06:14:21;1.80;;;1.17;;
24173;SDS011;12324;48.146;11.502;2023-11-19T06:16:50;2.40;;;1.30;;
24173;SDS011;12324;48.146;11.502;2023-11-19T06:19:18;1.25;;;1.15;;
24173;SDS011;12324;48.146;11.502;2023-11-19T06:21:45;2.55;;;1.20;;
24173;SDS011;12324;48.146;11.502;2023-11-19T06:24:12;1.48;;;1.30;;
24173;SDS011;12324;48.146;11.502;2023-11-19T06:26:39;1.10;;;1.00;;
24173;SDS011;12324;48.146;11.502;2023-11-19T06:29:06;1.52;;;1.33;;
24173;SDS011;12324;48.146;11.502;2023-11-19T06:31:33;1.50;;;1.40;;
24173;SDS011;12324;48.146;11.502;2023-11-19T06:34:00;4.75;;;1.65;;
24173;SDS011;12324;48.146;11.502;2023-11-19T06:36:28;1.60;;;1.33;;
24173;SDS011;12324;48.146;11.502;2023-11-19T06:38:55;2.65;;;1.20;;
24173;SDS011;12324;48.146;11.502;2023-11-19T06:41:22;2.30;;;1.25;;
24173;SDS011;12324;48.146;11.502;2023-11-19T06:43:49;2.33;;;1.17;;
24173;SDS011;12324;48.146;11.502;2023-11-19T06:46:16;1.85;;;1.40;;
24173;SDS011;12324;48.146;11.502;2023-11-19T06:48:44;3.30;;;1.30;;
24173;SDS011;12324;48.146;11.502;2023-11-19T06:51:12;3.55;;;0.98;;
24173;SDS011;12324;48.146;11.502;2023-11-19T06:53:39;3.08;;;1.15;;
24173;SDS011;12324;48.146;11.502;2023-11-19T06:56:17;1.02;;;0.90;;
24173;SDS011;12324;48.146;11.502;2023-11-19T06:58:44;0.80;;;0.80;;
24173;SDS011;12324;48.146;11.502;2023-11-19T07:01:11;1.10;;;1.00;;
24173;SDS011;12324;48.146;11.502;2023-11-19T07:03:40;1.13;;;1.00;;
24173;SDS011;12324;48.146;11.502;2023-11-19T07:06:07;1.33;;;0.90;;
24173;SDS011;12324;48.146;11.502;2023-11-19T07:08:34;0.98;;;0.95;;
24173;SDS011;12324;48.146;11.502;2023-11-19T07:11:02;0.88;;;0.88;;
24173;SDS011;12324;48.146;11.502;2023-11-19T07:13:30;0.60;;;0.60;;
24173;SDS011;12324;48.146;11.502;2023-11-19T07:15:57;1.10;;;1.00;;
24173;SDS011;12324;48.146;11.502;2023-11-19T07:18:25;1.15;;;0.98;;
24173;SDS011;12324;48.146;11.502;2023-11-19T07:20:52;2.28;;;1.10;;
24173;SDS011;12324;48.146;11.502;2023-11-19T07:23:20;1.33;;;0.75;;
24173;SDS011;12324;48.146;11.502;2023-11-19T07:25:47;0.88;;;0.88;;
24173;SDS011;12324;48.146;11.502;2023-11-19T07:28:16;1.13;;;1.02;;
24173;SDS011;12324;48.146;11.502;2023-11-19T07:30:43;1.05;;;0.95;;
24173;SDS011;12324;48.146;11.502;2023-11-19T07:33:10;1.60;;;0.95;;
24173;SDS011;12324;48.146;11.502;2023-11-19T07:35:39;1.23;;;0.90;;
24173;SDS011;12324;48.146;11.502;2023-11-19T07:38:08;0.90;;;0.88;;
24173;SDS011;12324;48.146;11.502;2023-11-19T07:40:36;2.05;;;1.20;;
24173;SDS011;12324;48.146;11.502;2023-11-19T07:43:03;1.63;;;1.20;;
24173;SDS011;12324;48.146;11.502;2023-11-19T07:45:30;1.25;;;1.00;;
24173;SDS011;12324;48.146;11.502;2023-11-19T07:47:57;0.80;;;0.80;;
24173;SDS011;12324;48.146;11.502;2023-11-19T07:50:24;2.97;;;1.15;;
24173;SDS011;12324;48.146;11.502;2023-11-19T07:52:51;1.15;;;0.95;;
24173;SDS011;12324;48.146;11.502;2023-11-19T07:55:18;1.50;;;1.10;;
24173;SDS011;12324;48.146;11.502;2023-11-19T07:57:46;1.40;;;1.00;;
24173;SDS011;12324;48.146;11.502;2023-11-19T08:00:13;3.15;;;1.30;;
24173;SDS011;12324;48.146;11.502;2023-11-19T08:02:40;1.73;;;0.90;;
24173;SDS011;12324;48.146;11.502;2023-11-19T08:05:08;0.80;;;0.80;;
24173;SDS011;12324;48.146;11.502;2023-11-19T08:07:35;1.23;;;0.80;;
24173;SDS011;12324;48.146;11.502;2023-11-19T08:10:02;1.25;;;1.00;;
24173;SDS011;12324;48.146;11.502;2023-11-19T08:12:31;1.17;;;0.95;;
24173;SDS011;12324;48.146;11.502;2023-11-19T08:14:58;1.45;;;1.10;;
24173;SDS011;12324;48.146;11.502;2023-11-19T08:17:25;3.80;;;1.00;;
24173;SDS011;12324;48.146;11.502;2023-11-19T08:19:52;0.80;;;0.80;;
24173;SDS011;12324;48.146;11.502;2023-11-19T08:22:19;0.70;;;0.70;;
24173;SDS011;12324;48.146;11.502;2023-11-19T08:24:47;0.73;;;0.73;;
24173;SDS011;12324;48.146;11.502;2023-11-19T08:27:14;1.48;;;0.80;;
24173;SDS011;12324;48.146;11.502;2023-11-19T08:29:41;0.88;;;0.88;;
24173;SDS011;12324;48.146;11.502;2023-11-19T08:32:08;0.82;;;0.80;;
24173;SDS011;12324;48.146;11.502;2023-11-19T08:34:37;0.77;;;0.77;;
24173;SDS011;12324;48.146;11.502;2023-11-19T08:37:04;1.00;;;0.90;;
24173;SDS011;12324;48.146;11.502;2023-11-19T08:39:32;2.95;;;1.08;;
24173;SDS011;12324;48.146;11.502;2023-11-19T08:42:01;0.70;;;0.70;;
24173;SDS011;12324;48.146;11.502;2023-11-19T08:44:28;0.80;;;0.80;;
24173;SDS011;12324;48.146;11.502;2023-11-19T08:46:55;0.82;;;0.82;;
24173;SDS011;12324;48.146;11.502;2023-11-19T08:49:22;1.80;;;1.20;;
24173;SDS011;12324;48.146;11.502;2023-11-19T08:51:49;0.95;;;0.90;;
24173;SDS011;12324;48.146;11.502;2023-11-19T08:54:17;2.72;;;1.17;;
24173;SDS011;12324;48.146;11.502;2023-11-19T08:56:46;1.08;;;0.80;;
24173;SDS011;12324;48.146;11.502;2023-11-19T08:59:13;3.28;;;1.10;;
24173;SDS011;12324;48.146;11.502;2023-11-19T09:01:43;0.60;;;0.60;;
24173;SDS011;12324;48.146;11.502;2023-11-19T09:04:10;4.45;;;1.55;;
24173;SDS011;12324;48.146;11.502;2023-11-19T09:06:38;0.88;;;0.80;;
24173;SDS011;12324;48.146;11.502;2023-11-19T09:09:05;0.85;;;0.85;;
24173;SDS011;12324;48.146;11.502;2023-11-19T09:11:32;0.90;;;0.90;;
24173;SDS011;12324;48.146;11.502;2023-11-19T09:13:59;1.25;;;0.95;;
24173;SDS011;12324;48.146;11.502;2023-11-19T09:16:27;2.00;;;1.00;;
24173;SDS011;12324;48.146;11.502;2023-11-19T09:18:54;0.80;;;0.80;;
24173;SDS011;12324;48.146;11.502;2023-11-19T09:21:21;2.22;;;1.23;;
24173;SDS011;12324;48.146;11.502;2023-11-19T09:23:48;1.33;;;1.00;;
24173;SDS011;12324;48.146;11.502;2023-11-19T09:26:15;1.45;;;1.00;;
24173;SDS011;12324;48.146;11.502;2023-11-19T09:28:45;2.15;;;1.10;;
24173;SDS011;12324;48.146;11.502;2023-11-19T09:31:12;1.33;;;1.00;;
24173;SDS011;12324;48.146;11.502;2023-11-19T09:33:40;3.00;;;1.30;;
24173;SDS011;12324;48.146;11.502;2023-11-19T09:36:07;1.92;;;1.10;;
24173;SDS011;12324;48.146;11.502;2023-11-19T09:38:34;1.02;;;0.93;;
24173;SDS011;12324;48.146;11.502;2023-11-19T09:41:05;0.88;;;0.88;;
24173;SDS011;12324;48.146;11.502;2023-11-19T09:43:35;3.00;;;1.10;;
24173;SDS011;12324;48.146;11.502;2023-11-19T09:46:06;1.38;;;0.98;;
24173;SDS011;12324;48.146;11.502;2023-11-19T09:48:34;1.40;;;0.98;;
24173;SDS011;12324;48.146;11.502;2023-11-19T09:51:04;1.27;;;1.00;;
24173;SDS011;12324;48.146;11.502;2023-11-19T09:53:31;1.35;;;1.17;;
24173;SDS011;12324;48.146;11.502;2023-11-19T09:55:59;1.60;;;1.10;;
24173;SDS011;12324;48.146;11.502;2023-11-19T09:58:29;2.50;;;1.02;;
24173;SDS011;12324;48.146;11.502;2023-11-19T10:00:57;1.35;;;1.00;;
24173;SDS011;12324;48.146;11.502;2023-11-19T10:03:45;2.42;;;1.15;;
24173;SDS011;12324;48.146;11.502;2023-11-19T10:06:14;1.15;;;0.98;;
24173;SDS011;12324;48.146;11.502;2023-11-19T10:08:42;3.60;;;1.33;;
24173;SDS011;12324;48.146;11.502;2023-11-19T10:11:10;2.97;;;1.20;;
24173;SDS011;12324;48.146;11.502;2023-11-19T10:13:39;1.00;;;0.88;;
24173;SDS011;12324;48.146;11.502;2023-11-19T10:16:07;3.45;;;1.52;;
24173;SDS011;12324;48.146;11.502;2023-11-19T10:18:35;1.90;;;1.30;;
24173;SDS011;12324;48.146;11.502;2023-11-19T10:21:06;1.70;;;1.15;;
24173;SDS011;12324;48.146;11.502;2023-11-19T10:23:53;1.35;;;1.02;;
24173;SDS011;12324;48.146;11.502;2023-11-19T10:26:22;1.02;;;0.93;;
24173;SDS011;12324;48.146;11.502;2023-11-19T10:28:50;1.30;;;1.20;;
24173;SDS011;12324;48.146;11.502;2023-11-19T10:31:17;0.95;;;0.88;;
24173;SDS011;12324;48.146;11.502;2023-11-19T10:33:45;1.80;;;1.08;;
24173;SDS011;12324;48.146;11.502;2023-11-19T10:36:13;3.08;;;0.90;;
24173;SDS011;12324;48.146;11.502;2023-11-19T10:38:40;1.30;;;0.90;;
24173;SDS011;12324;48.146;11.502;2023-11-19T10:41:08;1.10;;;1.00;;
24173;SDS011;12324;48.146;11.502;2023-11-19T10:43:44;1.38;;;0.82;;
24173;SDS011;12324;48.146;11.502;2023-11-19T10:46:12;2.88;;;1.00;;
24173;SDS011;12324;48.146;11.502;2023-11-19T10:48:39;1.58;;;0.90;;
24173;SDS011;12324;48.146;11.502;2023-11-19T10:51:07;0.73;;;0.70;;
24173;SDS011;12324;48.146;11.502;2023-11-19T10:53:36;0.70;;;0.70;;
24173;SDS011;12324;48.146;11.502;2023-11-19T10:56:04;1.25;;;0.70;;
24173;SDS011;12324;48.146;11.502;2023-11-19T10:58:34;0.77;;;0.77;;
24173;SDS011;12324;48.146;11.502;2023-11-19T11:01:05;0.93;;;0.77;;
24173;SDS011;12324;48.146;11.502;2023-11-19T11:03:41;1.58;;;1.15;;
24173;SDS011;12324;48.146;11.502;2023-11-19T11:06:09;2.72;;;1.00;;
24173;SDS011;12324;48.146;11.502;2023-11-19T11:08:37;0.80;;;0.80;;
24173;SDS011;12324;48.146;11.502;2023-11-19T11:11:05;1.05;;;0.80;;
24173;SDS011;12324;48.146;11.502;2023-11-19T11:13:34;0.90;;;0.75;;
24173;SDS011;12324;48.146;11.502;2023-11-19T11:16:02;0.70;;;0.70;;
24173;SDS011;12324;48.146;11.502;2023-11-19T11:18:33;0.80;;;0.80;;
24173;SDS011;12324;48.146;11.502;2023-11-19T11:21:00;0.60;;;0.60;;
24173;SDS011;12324;48.146;11.502;2023-11-19T11:26:32;1.00;;;0.90;;
24173;SDS011;12324;48.146;11.502;2023-11-19T11:29:08;0.80;;;0.80;;
24173;SDS011;12324;48.146;11.502;2023-11-19T11:31:43;0.93;;;0.70;;
24173;SDS011;12324;48.146;11.502;2023-11-19T11:34:19;0.60;;;0.60;;
24173;SDS011;12324;48.146;11.502;2023-11-19T11:36:54;1.98;;;0.90;;
24173;SDS011;12324;48.146;11.502;2023-11-19T11:39:24;0.65;;;0.65;;
24173;SDS011;12324;48.146;11.502;2023-11-19T11:50:18;0.93;;;0.77;;
24173;SDS011;12324;48.146;11.502;2023-11-19T11:55:35;0.73;;;0.73;;
24173;SDS011;12324;48.146;11.502;2023-11-19T11:58:06;0.93;;;0.85;;
24173;SDS011;12324;48.146;11.502;2023-11-19T12:00:36;0.93;;;0.82;;
24173;SDS011;12324;48.146;11.502;2023-11-19T12:03:06;0.70;;;0.70;;
24173;SDS011;12324;48.146;11.502;2023-11-19T12:05:43;1.90;;;0.88;;
24173;SDS011;12324;48.146;11.502;2023-11-19T12:08:13;1.25;;;0.90;;
24173;SDS011;12324;48.146;11.502;2023-11-19T12:10:49;2.25;;;0.90;;
24173;SDS011;12324;48.146;11.502;2023-11-19T12:13:18;0.60;;;0.60;;
24173;SDS011;12324;48.146;11.502;2023-11-19T12:18:24;0.73;;;0.73;;
24173;SDS011;12324;48.146;11.502;2023-11-19T12:20:53;1.67;;;1.17;;
24173;SDS011;12324;48.146;11.502;2023-11-19T12:23:21;1.00;;;0.73;;
24173;SDS011;12324;48.146;11.502;2023-11-19T12:25:48;0.68;;;0.68;;
24173;SDS011;12324;48.146;11.502;2023-11-19T12:28:16;1.20;;;0.95;;
24173;SDS011;12324;48.146;11.502;2023-11-19T12:30:43;0.88;;;0.80;;
24173;SDS011;12324;48.146;11.502;2023-11-19T12:33:11;0.60;;;0.60;;
24173;SDS011;12324;48.146;11.502;2023-11-19T12:35:40;0.65;;;0.60;;
24173;SDS011;12324;48.146;11.502;2023-11-19T12:38:18;0.90;;;0.65;;
24173;SDS011;12324;48.146;11.502;2023-11-19T12:41:07;0.75;;;0.70;;
24173;SDS011;12324;48.146;11.502;2023-11-19T12:43:36;1.27;;;0.95;;
24173;SDS011;12324;48.146;11.502;2023-11-19T12:48:49;3.20;;;1.00;;
24173;SDS011;12324;48.146;11.502;2023-11-19T12:51:17;0.70;;;0.70;;
24173;SDS011;12324;48.146;11.502;2023-11-19T12:56:16;1.65;;;1.08;;
24173;SDS011;12324;48.146;11.502;2023-11-19T12:58:43;2.47;;;1.00;;
24173;SDS011;12324;48.146;11.502;2023-11-19T13:01:15;0.82;;;0.80;;
24173;SDS011;12324;48.146;11.502;2023-11-19T13:03:43;0.80;;;0.80;;
24173;SDS011;12324;48.146;11.502;2023-11-19T13:06:11;1.08;;;0.98;;
24173;SDS011;12324;48.146;11.502;2023-11-19T13:08:48;1.58;;;0.90;;
24173;SDS011;12324;48.146;11.502;2023-11-19T13:11:31;0.70;;;0.70;;
24173;SDS011;12324;48.146;11.502;2023-11-19T13:14:03;1.00;;;0.93;;
24173;SDS011;12324;48.146;11.502;2023-11-19T13:16:31;1.08;;;0.98;;
24173;SDS011;12324;48.146;11.502;2023-11-19T13:18:59;3.63;;;1.02;;
24173;SDS011;12324;48.146;11.502;2023-11-19T13:21:27;1.98;;;1.08;;
24173;SDS011;12324;48.146;11.502;2023-11-19T13:23:53;1.40;;;1.00;;
24173;SDS011;12324;48.146;11.502;2023-11-19T13:26:20;0.90;;;0.80;;
24173;SDS011;12324;48.146;11.502;2023-11-19T13:28:48;0.70;;;0.70;;
24173;SDS011;12324;48.146;11.502;2023-11-19T13:31:16;2.05;;;0.80;;
24173;SDS011;12324;48.146;11.502;2023-11-19T13:33:44;1.02;;;0.93;;
24173;SDS011;12324;48.146;11.502;2023-11-19T13:36:11;1.13;;;0.88;;
24173;SDS011;12324;48.146;11.502;2023-11-19T13:38:42;1.17;;;1.08;;
24173;SDS011;12324;48.146;11.502;2023-11-19T13:41:10;2.83;;;1.00;;
24173;SDS011;12324;48.146;11.502;2023-11-19T13:43:38;1.25;;;0.95;;
24173;SDS011;12324;48.146;11.502;2023-11-19T13:46:05;1.67;;;1.25;;
24173;SDS011;12324;48.146;11.502;2023-11-19T13:48:32;3.35;;;1.15;;
24173;SDS011;12324;48.146;11.502;2023-11-19T13:50:59;1.67;;;1.10;;
24173;SDS011;12324;48.146;11.502;2023-11-19T13:53:26;2.53;;;1.17;;
24173;SDS011;12324;48.146;11.502;2023-11-19T13:55:52;3.13;;;1.20;;
24173;SDS011;12324;48.146;11.502;2023-11-19T13:58:19;1.48;;;0.90;;
24173;SDS011;12324;48.146;11.502;2023-11-19T14:00:46;3.92;;;1.20;;
24173;SDS011;12324;48.146;11.502;2023-11-19T14:03:13;1.77;;;1.05;;
24173;SDS011;12324;48.146;11.502;2023-11-19T14:05:40;3.03;;;1.27;;
24173;SDS011;12324;48.146;11.502;2023-11-19T14:08:08;1.80;;;1.00;;
24173;SDS011;12324;48.146;11.502;2023-11-19T14:10:50;2.47;;;1.17;;
24173;SDS011;12324;48.146;11.502;2023-11-19T14:13:17;2.30;;;1.00;;
24173;SDS011;12324;48.146;11.502;2023-11-19T14:15:44;1.83;;;1.00;;
24173;SDS011;12324;48.146;11.502;2023-11-19T14:18:15;1.10;;;0.93;;
24173;SDS011;12324;48.146;11.502;2023-11-19T14:20:43;1.73;;;1.00;;
24173;SDS011;12324;48.146;11.502;2023-11-19T14:23:10;1.77;;;1.02;;
24173;SDS011;12324;48.146;11.502;2023-11-19T14:25:37;1.27;;;1.13;;
24173;SDS011;12324;48.146;11.502;2023-11-19T14:28:04;0.80;;;0.80;;
24173;SDS011;12324;48.146;11.502;2023-11-19T14:30:32;2.20;;;0.63;;
24173;SDS011;12324;48.146;11.502;2023-11-19T14:33:01;1.00;;;0.90;;
24173;SDS011;12324;48.146;11.502;2023-11-19T14:35:29;3.10;;;1.60;;
24173;SDS011;12324;48.146;11.502;2023-11-19T14:37:56;2.17;;;1.10;;
24173;SDS011;12324;48.146;11.502;2023-11-19T14:40:24;1.73;;;1.20;;
24173;SDS011;12324;48.146;11.502;2023-11-19T14:43:08;1.77;;;1.15;;
24173;SDS011;12324;48.146;11.502;2023-11-19T14:45:38;1.02;;;0.98;;
24173;SDS011;12324;48.146;11.502;2023-11-19T14:48:14;1.40;;;1.10;;
24173;SDS011;12324;48.146;11.502;2023-11-19T14:50:41;1.00;;;0.80;;
24173;SDS011;12324;48.146;11.502;2023-11-19T14:53:08;0.85;;;0.80;;
24173;SDS011;12324;48.146;11.502;2023-11-19T14:55:35;1.02;;;0.90;;
24173;SDS011;12324;48.146;11.502;2023-11-19T14:58:02;1.10;;;0.90;;
24173;SDS011;12324;48.146;11.502;2023-11-19T15:00:36;3.05;;;0.90;;
24173;SDS011;12324;48.146;11.502;2023-11-19T15:03:03;0.95;;;0.80;;